Time;durP1;ratioP1;P1;durP2;ratioP2;P2;SDS_P1;SDS_P2;PMS_P1;PMS_P2;Temp;Humidity;BMP_temperature;BMP_pressure;BME280_temperature;BME280_humidity;BME280_pressure;Samples;Min_cycle;Max_cycle;Signal;HPM_P1;HPM_P2
2022/12/26 00:02:05;;;;;;;5.05;4.33;;;;;;;1.82;76.83;100287.41;1761502;81;20956;-39
2022/12/26 00:04:32;;;;;;;5.17;4.22;;;;;;;1.87;76.57;100284.70;1761404;81;21620;-39
2022/12/26 00:07:00;;;;;;;4.33;3.92;;;;;;;1.94;76.27;100281.95;1761140;81;21068;-40
2022/12/26 00:09:27;;;;;;;4.62;3.95;;;;;;;2.02;75.92;100285.92;1761128;81;23156;-39
2022/12/26 00:11:55;;;;;;;5.55;4.95;;;;;;;2.04;76.10;100290.43;1761098;81;20933;-39
2022/12/26 00:14:22;;;;;;;4.83;4.25;;;;;;;2.09;76.05;100289.85;1761012;81;21487;-39
2022/12/26 00:16:49;;;;;;;5.78;4.62;;;;;;;2.15;75.88;100292.75;1761269;81;21521;-39
2022/12/26 00:19:16;;;;;;;5.12;4.33;;;;;;;2.21;75.61;100296.19;1761154;81;20904;-40
2022/12/26 00:21:42;;;;;;;5.80;4.60;;;;;;;2.22;75.29;100298.32;1761091;81;21155;-39
2022/12/26 00:24:10;;;;;;;6.78;4.87;;;;;;;2.21;75.01;100296.72;1760751;81;21746;-39
2022/12/26 00:26:37;;;;;;;5.00;4.42;;;;;;;2.23;74.83;100295.91;1737591;81;21035;-39
2022/12/26 00:29:04;;;;;;;5.22;4.45;;;;;;;2.21;74.75;100290.83;1760928;81;21049;-39
2022/12/26 00:31:32;;;;;;;6.35;4.62;;;;;;;2.24;74.82;100289.45;1761188;81;21027;-39
2022/12/26 00:33:59;;;;;;;5.80;4.90;;;;;;;2.28;74.74;100286.47;1761169;81;21097;-39
2022/12/26 00:36:29;;;;;;;5.95;5.15;;;;;;;2.27;74.62;100283.03;1761047;81;20937;-39
2022/12/26 00:38:59;;;;;;;5.00;4.50;;;;;;;2.24;74.59;100284.91;1760892;81;21494;-39
2022/12/26 00:41:26;;;;;;;5.35;4.58;;;;;;;2.30;74.50;100289.68;1760996;81;21048;-39
2022/12/26 00:43:54;;;;;;;4.78;4.30;;;;;;;2.37;74.23;100287.48;1747631;81;21123;-39
2022/12/26 00:46:24;;;;;;;5.95;5.03;;;;;;;2.36;74.18;100287.22;1736825;82;21525;-39
2022/12/26 00:48:50;;;;;;;6.53;5.03;;;;;;;2.31;74.33;100286.73;1736496;82;21576;-39
2022/12/26 00:51:17;;;;;;;6.08;5.45;;;;;;;2.19;74.42;100275.05;1736692;82;21031;-39
2022/12/26 00:53:45;;;;;;;6.30;5.00;;;;;;;2.25;74.49;100287.84;1736704;82;21087;-39
2022/12/26 00:56:11;;;;;;;5.67;4.55;;;;;;;2.24;74.38;100290.80;1736689;82;20992;-39
2022/12/26 00:58:40;;;;;;;5.42;4.45;;;;;;;2.26;74.27;100287.31;1736835;82;21096;-39
2022/12/26 01:01:14;;;;;;;5.33;4.83;;;;;;;2.32;74.23;100290.20;1736571;82;21043;-39
2022/12/26 01:03:41;;;;;;;5.00;4.50;;;;;;;2.34;74.48;100288.03;1736895;82;21072;-40
2022/12/26 01:06:07;;;;;;;5.15;4.65;;;;;;;2.41;74.52;100287.17;1737018;82;21525;-39
2022/12/26 01:08:34;;;;;;;5.97;4.95;;;;;;;2.46;74.23;100292.48;1736823;82;21017;-39
2022/12/26 01:11:04;;;;;;;5.20;4.65;;;;;;;2.42;73.96;100287.44;1736749;82;21140;-40
2022/12/26 01:13:31;;;;;;;6.20;4.80;;;;;;;2.39;74.08;100285.31;1736914;82;21473;-39
2022/12/26 01:15:58;;;;;;;5.28;4.78;;;;;;;2.39;74.02;100285.31;1736729;82;21066;-39
2022/12/26 01:18:25;;;;;;;6.60;5.80;;;;;;;2.41;73.84;100275.13;1736590;82;21040;-40
2022/12/26 01:21:01;;;;;;;5.83;5.22;;;;;;;2.40;73.89;100278.88;1730837;82;21012;-40
2022/12/26 01:23:28;;;;;;;7.22;5.15;;;;;;;2.33;74.16;100286.43;1736927;82;21533;-40
2022/12/26 01:25:54;;;;;;;7.17;5.30;;;;;;;2.30;74.44;100288.34;1736811;82;20978;-39
2022/12/26 01:28:21;;;;;;;5.47;4.97;;;;;;;2.28;74.41;100288.61;1736964;82;21011;-39
2022/12/26 01:30:49;;;;;;;5.30;4.45;;;;;;;2.26;74.58;100287.31;1736770;82;21585;-39
2022/12/26 01:33:16;;;;;;;5.78;4.92;;;;;;;2.27;74.44;100288.91;1736954;82;21060;-39
2022/12/26 01:35:52;;;;;;;5.45;4.83;;;;;;;2.33;74.26;100288.56;1737056;82;22034;-39
2022/12/26 01:38:20;;;;;;;6.35;5.42;;;;;;;2.36;74.20;100284.55;1736887;82;20921;-39
2022/12/26 01:40:48;;;;;;;6.85;5.90;;;;;;;2.33;74.28;100287.77;1736716;82;21543;-39
2022/12/26 01:43:16;;;;;;;11.33;5.92;;;;;;;2.31;74.32;100293.95;1741875;81;21079;-40
2022/12/26 01:48:20;;;;;;;6.22;5.42;;;;;;;2.28;74.33;100289.15;1836234;78;23230;-40
2022/12/26 01:50:58;;;;;;;6.75;5.92;;;;;;;2.14;74.36;100287.13;1806330;79;20915;-39
2022/12/26 01:53:34;;;;;;;6.12;5.28;;;;;;;2.16;74.41;100281.52;1806367;79;21267;-39
2022/12/26 01:56:07;;;;;;;7.70;5.28;;;;;;;2.17;74.65;100281.24;1806027;79;21502;-39
2022/12/26 01:58:38;;;;;;;5.92;5.22;;;;;;;2.18;74.87;100282.81;1796610;79;21724;-39
2022/12/26 02:01:06;;;;;;;8.38;6.00;;;;;;;2.21;74.82;100274.78;1784535;79;20953;-39
2022/12/26 02:06:20;;;;;;;8.18;5.35;;;;;;;2.21;74.66;100284.14;1777979;80;23173;-39
2022/12/26 02:08:47;;;;;;;5.50;4.90;;;;;;;2.19;74.49;100279.06;1784378;79;20902;-39
2022/12/26 02:11:34;;;;;;;6.03;5.20;;;;;;;2.27;74.47;100279.55;1784470;80;20980;-39
2022/12/26 02:14:00;;;;;;;5.67;4.80;;;;;;;2.31;74.47;100268.53;1784305;79;21016;-39
2022/12/26 02:16:28;;;;;;;6.20;5.37;;;;;;;2.30;74.39;100273.09;1784393;79;21068;-39
2022/12/26 02:18:55;;;;;;;5.97;5.37;;;;;;;2.32;74.25;100279.50;1784283;79;21225;-39
2022/12/26 02:21:40;;;;;;;6.17;5.17;;;;;;;2.30;73.97;100272.28;1784450;80;20923;-40
2022/12/26 02:24:49;;;;;;;6.03;5.03;;;;;;;2.25;73.95;100275.01;1784372;80;20914;-39
2022/12/26 02:28:00;;;;;;;4.70;4.22;;;;;;;2.22;73.89;100274.25;1784709;79;21029;-39
2022/12/26 02:31:07;;;;;;;7.20;6.12;;;;;;;2.24;74.14;100274.75;1784539;79;20925;-39
2022/12/26 02:34:14;;;;;;;7.00;6.30;;;;;;;2.15;74.09;100272.69;1784636;80;21124;-39
2022/12/26 02:37:05;;;;;;;7.05;6.08;;;;;;;2.09;74.34;100263.11;1784493;79;21064;-39
2022/12/26 02:39:59;;;;;;;7.12;5.78;;;;;;;2.03;74.48;100260.20;1784358;80;20992;-40
2022/12/26 02:42:49;;;;;;;7.40;6.00;;;;;;;2.06;74.60;100261.00;1781711;80;20926;-39
2022/12/26 02:48:48;;;;;;;8.68;6.40;;;;;;;2.10;74.63;100256.69;1764712;80;21574;-39
2022/12/26 03:14:58;;;;;;;10.18;8.43;;;;;;;1.98;75.03;100251.45;1783856;79;21020;-39
2022/12/26 03:17:38;;;;;;;8.85;7.47;;;;;;;1.97;74.98;100256.00;1783881;80;21263;-40
2022/12/26 03:20:29;;;;;;;11.28;8.55;;;;;;;2.00;75.01;100255.44;1783824;80;20921;-40
2022/12/26 03:23:11;;;;;;;10.17;8.33;;;;;;;1.95;75.07;100262.16;1778000;80;21470;-40
2022/12/26 03:28:34;;;;;;;10.60;8.85;;;;;;;1.85;75.45;100266.25;1783930;79;20966;-39
2022/12/26 03:31:04;;;;;;;11.00;8.33;;;;;;;1.85;75.38;100269.46;1783633;79;21145;-39
2022/12/26 03:36:42;;;;;;;12.43;9.58;;;;;;;1.89;75.60;100269.19;1783876;79;20141;-39
2022/12/26 04:44:14;;;;;;;13.10;10.23;;;;;;;2.01;75.64;100290.47;1789473;80;21141;-40
2022/12/26 04:46:44;;;;;;;12.37;9.93;;;;;;;2.11;75.24;100289.05;1789717;79;20976;-40
2022/12/26 04:51:59;;;;;;;12.88;10.32;;;;;;;2.28;74.77;100299.84;1781314;80;20078;-40
2022/12/26 04:54:26;;;;;;;14.40;10.18;;;;;;;2.24;74.96;100304.17;1781284;79;20930;-40
2022/12/26 04:56:53;;;;;;;14.13;11.48;;;;;;;2.30;74.48;100309.74;1781080;80;21244;-39
2022/12/26 04:59:20;;;;;;;12.90;10.05;;;;;;;2.24;74.33;100310.33;1781323;80;20961;-39
2022/12/26 05:10:22;;;;;;;11.78;9.20;;;;;;;2.27;74.22;100323.70;1781449;80;22000;-39
2022/12/26 05:12:49;;;;;;;12.45;9.83;;;;;;;2.26;74.29;100326.11;1781281;79;21502;-40
2022/12/26 05:15:16;;;;;;;12.05;9.93;;;;;;;2.30;74.29;100326.59;1780976;80;20940;-39
2022/12/26 05:28:43;;;;;;;12.25;9.50;;;;;;;2.48;73.33;100333.92;1781220;79;20973;-39
2022/12/26 05:31:15;;;;;;;12.75;9.50;;;;;;;2.53;73.38;100335.75;1781058;80;21033;-39
2022/12/26 05:36:47;;;;;;;13.45;9.28;;;;;;;2.50;73.08;100330.97;1781304;79;21148;-39
2022/12/26 05:39:14;;;;;;;12.25;9.13;;;;;;;2.44;72.91;100333.43;1781102;79;20973;-39
2022/12/26 05:41:42;;;;;;;11.43;9.15;;;;;;;2.37;72.83;100333.75;1781082;80;21005;-39
2022/12/26 05:44:09;;;;;;;10.45;7.87;;;;;;;2.32;72.93;100320.44;1780992;80;21017;-40
2022/12/26 05:46:36;;;;;;;11.88;8.28;;;;;;;2.27;73.05;100319.68;1781284;79;20982;-39
2022/12/26 05:49:04;;;;;;;10.40;8.33;;;;;;;2.15;73.22;100322.70;1774335;79;21330;-40
2022/12/26 05:51:33;;;;;;;10.43;8.33;;;;;;;2.08;73.53;100320.34;1768027;81;21508;-39
2022/12/26 05:53:59;;;;;;;10.08;8.30;;;;;;;2.02;73.63;100316.67;1773009;81;21061;-39
2022/12/26 05:56:26;;;;;;;10.70;7.97;;;;;;;1.98;73.75;100320.98;1773071;81;21319;-39
2022/12/26 05:58:54;;;;;;;9.98;7.97;;;;;;;2.00;73.80;100316.94;1773071;79;21009;-39
2022/12/26 06:01:22;;;;;;;11.08;8.48;;;;;;;2.04;73.84;100326.00;1773524;81;21076;-39
2022/12/26 06:03:53;;;;;;;9.70;7.97;;;;;;;2.04;74.15;100322.52;1772874;81;21065;-39
2022/12/26 06:06:19;;;;;;;11.97;8.80;;;;;;;2.10;74.44;100318.20;1772652;79;20950;-39
2022/12/26 06:08:48;;;;;;;12.60;9.15;;;;;;;2.15;74.15;100318.70;1772959;81;20996;-40
2022/12/26 06:11:15;;;;;;;13.25;10.08;;;;;;;2.13;73.97;100309.61;1760086;81;21014;-40
2022/12/26 06:13:42;;;;;;;11.53;9.65;;;;;;;2.10;73.89;100310.18;1772825;81;21216;-40
2022/12/26 06:16:14;;;;;;;11.12;8.95;;;;;;;2.13;73.73;100316.86;1772786;81;21240;-39
2022/12/26 06:18:41;;;;;;;13.20;10.18;;;;;;;2.10;74.03;100316.06;1773219;79;21026;-40
2022/12/26 06:21:11;;;;;;;13.25;10.70;;;;;;;2.13;74.20;100320.30;1772705;81;21610;-39
2022/12/26 06:23:38;;;;;;;;;;;;;;;2.20;74.17;100317.31;1775949;81;21021;-40
2022/12/26 06:26:06;;;;;;;14.78;11.28;;;;;;;2.27;73.95;100315.67;1772815;81;21208;-39
2022/12/26 06:28:33;;;;;;;13.32;10.32;;;;;;;2.15;73.96;100313.34;1772748;81;20945;-39
2022/12/26 06:31:05;;;;;;;13.83;10.55;;;;;;;2.18;73.91;100318.92;1772857;81;21563;-39
2022/12/26 06:33:32;;;;;;;12.78;10.03;;;;;;;2.28;73.69;100315.91;1772873;79;21570;-40
2022/12/26 06:36:12;;;;;;;13.08;9.73;;;;;;;2.32;73.58;100319.64;1773102;81;20996;-39
2022/12/26 06:38:38;;;;;;;14.58;10.60;;;;;;;2.37;73.54;100326.28;1772746;80;21950;-39
2022/12/26 06:41:07;;;;;;;12.82;10.05;;;;;;;2.39;73.12;100326.78;1772849;81;21018;-39
2022/12/26 06:43:34;;;;;;;15.65;11.38;;;;;;;2.37;73.03;100321.70;1773173;79;21029;-40
2022/12/26 06:46:02;;;;;;;13.43;10.72;;;;;;;2.35;73.00;100316.39;1773016;81;21641;-39
2022/12/26 06:48:29;;;;;;;14.20;10.40;;;;;;;2.32;72.81;100316.42;1773352;79;20954;-40
2022/12/26 06:50:56;;;;;;;13.83;11.65;;;;;;;2.32;72.78;100318.30;1773202;79;21283;-39
2022/12/26 06:53:23;;;;;;;16.02;11.25;;;;;;;2.38;72.95;100309.13;1773064;79;21523;-39
2022/12/26 06:55:50;;;;;;;16.05;11.95;;;;;;;2.39;73.10;100308.85;1773152;81;21045;-39
2022/12/26 06:58:19;;;;;;;17.17;12.25;;;;;;;2.40;73.07;100302.42;1773121;81;21068;-39
2022/12/26 07:00:46;;;;;;;14.33;11.55;;;;;;;2.39;73.12;100302.70;1773131;81;20930;-40
2022/12/26 07:03:12;;;;;;;15.80;12.37;;;;;;;2.39;73.21;100298.15;1772934;81;21172;-39
2022/12/26 07:05:39;;;;;;;17.17;11.73;;;;;;;2.43;73.15;100289.01;1773004;79;20993;-39
2022/12/26 07:08:06;;;;;;;14.25;11.78;;;;;;;2.41;72.95;100289.31;1773155;79;21022;-39
2022/12/26 07:10:36;;;;;;;14.53;10.70;;;;;;;2.44;72.98;100286.59;1773011;81;20934;-39
2022/12/26 07:13:02;;;;;;;;;;;;;;;2.54;72.92;100283.82;1775621;81;21024;-39
2022/12/26 07:15:30;;;;;;;14.78;12.23;;;;;;;2.59;72.77;100285.11;1772919;81;21238;-39
2022/12/26 07:17:56;;;;;;;16.95;12.78;;;;;;;2.44;72.84;100281.24;1759999;81;20929;-40
2022/12/26 07:20:23;;;;;;;17.05;12.28;;;;;;;2.40;72.79;100278.34;1773051;79;21078;-39
2022/12/26 07:22:49;;;;;;;14.68;12.65;;;;;;;2.38;72.72;100277.02;1772866;79;21005;-39
2022/12/26 07:25:18;;;;;;;16.30;12.78;;;;;;;2.32;72.82;100270.94;1773197;79;20930;-39
2022/12/26 07:27:45;;;;;;;14.70;11.45;;;;;;;2.31;72.87;100273.89;1773095;81;21137;-39
2022/12/26 07:30:12;;;;;;;14.35;11.63;;;;;;;2.38;72.83;100274.34;1772968;79;21009;-39
2022/12/26 07:32:39;;;;;;;15.53;12.37;;;;;;;2.47;72.46;100280.70;1773306;79;21025;-39
2022/12/26 07:35:07;;;;;;;16.40;12.98;;;;;;;2.46;72.49;100286.59;1772776;81;21582;-39
2022/12/26 07:37:34;;;;;;;19.07;14.73;;;;;;;2.44;72.49;100279.91;1773302;81;20981;-39
2022/12/26 07:40:00;;;;;;;18.82;14.93;;;;;;;2.44;72.55;100274.55;1772973;79;21303;-39
2022/12/26 07:42:27;;;;;;;22.87;15.68;;;;;;;2.38;72.60;100276.48;1772853;81;21077;-39
2022/12/26 07:44:54;;;;;;;19.30;14.13;;;;;;;2.33;72.50;100277.06;1773048;81;20965;-39
2022/12/26 07:47:20;;;;;;;19.45;14.83;;;;;;;2.27;72.73;100278.21;1773109;81;20937;-39
2022/12/26 07:49:47;;;;;;;18.73;14.28;;;;;;;2.30;72.85;100289.68;1787425;80;21851;-39
2022/12/26 07:52:14;;;;;;;17.05;13.38;;;;;;;2.42;72.92;100290.11;1789639;80;23148;-39
2022/12/26 07:54:41;;;;;;;18.17;14.63;;;;;;;2.45;72.86;100287.66;1789657;80;20941;-39
2022/12/26 07:57:08;;;;;;;17.48;14.43;;;;;;;2.48;72.97;100292.97;1789784;79;20969;-39
2022/12/26 07:59:35;;;;;;;19.92;15.38;;;;;;;2.44;72.60;100286.06;1789734;79;21068;-39
2022/12/26 08:02:03;;;;;;;20.92;15.70;;;;;;;2.41;72.83;100283.16;1790016;80;20957;-39
2022/12/26 08:04:32;;;;;;;19.70;15.10;;;;;;;2.40;72.80;100278.34;1789561;80;21503;-39
2022/12/26 08:06:59;;;;;;;21.10;15.30;;;;;;;2.38;72.79;100281.03;1789782;80;20992;-39
2022/12/26 08:09:25;;;;;;;21.48;16.27;;;;;;;2.38;72.58;100289.86;1789771;79;21003;-40
2022/12/26 08:11:53;;;;;;;26.77;19.65;;;;;;;2.44;72.69;100283.92;1783811;78;21521;-40
2022/12/26 08:14:20;;;;;;;26.50;19.37;;;;;;;2.46;72.61;100283.91;1783548;80;21062;-40
2022/12/26 08:16:47;;;;;;;28.47;20.97;;;;;;;2.48;72.46;100295.11;1783269;80;21130;-39
2022/12/26 08:19:13;;;;;;;26.42;20.00;;;;;;;2.44;72.40;100291.95;1783244;80;20960;-40
2022/12/26 08:21:40;;;;;;;27.75;21.15;;;;;;;2.39;72.39;100290.66;1783273;80;20936;-39
2022/12/26 08:24:07;;;;;;;27.13;19.80;;;;;;;2.30;72.55;100286.47;1783152;80;21528;-39
2022/12/26 08:26:34;;;;;;;28.35;21.00;;;;;;;2.27;72.70;100284.91;1783382;80;21000;-39
2022/12/26 08:29:00;;;;;;;24.75;19.15;;;;;;;2.27;72.92;100284.36;1783277;80;21198;-39
2022/12/26 08:31:27;;;;;;;25.12;18.65;;;;;;;2.31;72.98;100284.59;1783153;80;21557;-39
2022/12/26 08:33:56;;;;;;;28.17;20.60;;;;;;;2.30;73.04;100286.47;1783331;80;21085;-40
2022/12/26 08:36:23;;;;;;;30.15;22.22;;;;;;;2.29;72.98;100285.41;1783533;80;21040;-39
2022/12/26 08:38:49;;;;;;;29.77;21.50;;;;;;;2.25;73.21;100289.19;1783369;80;21588;-39
2022/12/26 08:41:19;;;;;;;30.32;22.07;;;;;;;2.22;73.46;100287.09;1783697;80;21115;-39
2022/12/26 08:43:50;;;;;;;29.87;22.98;;;;;;;2.27;73.39;100283.03;1783424;80;21012;-39
2022/12/26 08:46:18;;;;;;;30.37;22.35;;;;;;;2.37;73.19;100282.13;1783670;80;20952;-39
2022/12/26 08:48:45;;;;;;;32.15;23.25;;;;;;;2.36;73.32;100281.87;1783428;79;20928;-40
2022/12/26 08:51:16;;;;;;;35.03;25.37;;;;;;;2.39;73.56;100289.32;1783185;80;21032;-39
2022/12/26 08:53:42;;;;;;;36.35;25.82;;;;;;;2.40;73.35;100286.38;1783878;80;21502;-40
2022/12/26 08:56:13;;;;;;;35.03;26.27;;;;;;;2.44;73.35;100287.94;1783248;80;20968;-39
2022/12/26 08:58:41;;;;;;;36.60;26.05;;;;;;;2.42;73.17;100284.76;1783686;80;20972;-42
2022/12/26 09:01:14;;;;;;;38.13;25.35;;;;;;;2.41;73.15;100280.48;1783307;80;21568;-39
2022/12/26 09:03:43;;;;;;;33.98;25.35;;;;;;;2.43;72.99;100274.29;1783745;80;21028;-40
2022/12/26 09:06:11;;;;;;;36.80;26.42;;;;;;;2.44;72.93;100275.36;1783488;80;21243;-39
2022/12/26 09:08:38;;;;;;;36.53;26.07;;;;;;;2.46;72.93;100271.06;1783625;80;21011;-39
2022/12/26 09:11:07;;;;;;;35.50;26.17;;;;;;;2.46;73.06;100266.52;1783448;80;21047;-39
2022/12/26 09:13:35;;;;;;;36.42;27.05;;;;;;;2.51;73.25;100271.81;1783978;80;20992;-40
2022/12/26 09:16:15;;;;;;;36.20;26.25;;;;;;;2.57;73.08;100263.97;1783568;80;21012;-39
2022/12/26 09:18:43;;;;;;;33.70;24.30;;;;;;;2.56;72.83;100260.25;1783290;80;21150;-39
2022/12/26 09:21:12;;;;;;;35.40;24.82;;;;;;;2.59;72.62;100248.97;1783493;80;20987;-39
2022/12/26 09:23:39;;;;;;;32.17;24.60;;;;;;;2.63;72.28;100247.31;1783350;80;20997;-39
2022/12/26 09:26:15;;;;;;;38.17;28.42;;;;;;;2.62;72.36;100236.34;1783455;80;21091;-40
2022/12/26 09:28:42;;;;;;;36.45;28.25;;;;;;;2.62;72.50;100234.47;1782725;80;21095;-39
2022/12/26 09:31:24;;;;;;;44.65;30.37;;;;;;;2.61;72.29;100230.76;1783529;80;21095;-39
2022/12/26 09:33:52;;;;;;;37.13;27.70;;;;;;;2.56;72.44;100226.27;1783111;80;20976;-39
2022/12/26 09:36:23;;;;;;;;;;;;;;;2.53;72.63;100230.83;1785894;80;21538;-39
2022/12/26 09:38:49;;;;;;;31.43;23.07;;;;;;;2.53;72.69;100220.13;1783440;80;21606;-39
2022/12/26 09:42:09;;;;;;;28.25;20.95;;;;;;;2.52;72.49;100233.78;1783359;80;21012;-39
2022/12/26 09:44:48;;;;;;;29.00;20.15;;;;;;;2.60;72.37;100233.17;1783259;80;22119;-39
2022/12/26 09:47:31;;;;;;;30.92;22.32;;;;;;;2.61;72.24;100235.55;1783232;79;21062;-39
2022/12/26 09:50:17;;;;;;;26.35;19.98;;;;;;;2.61;72.13;100241.47;1783150;79;20925;-39
2022/12/26 09:53:00;;;;;;;27.25;20.90;;;;;;;2.59;72.09;100247.63;1781707;80;20905;-39
2022/12/26 09:55:53;;;;;;;27.13;20.80;;;;;;;2.60;71.76;100242.00;1783721;80;21107;-40
2022/12/26 09:58:54;;;;;;;30.25;19.73;;;;;;;2.56;71.82;100246.87;1783395;80;21127;-39
2022/12/26 10:01:28;;;;;;;27.95;20.65;;;;;;;2.59;71.96;100242.28;1783349;80;20924;-40
2022/12/26 10:03:57;;;;;;;25.65;19.60;;;;;;;2.68;71.68;100231.73;1783260;79;21028;-39
2022/12/26 10:06:43;;;;;;;28.32;21.23;;;;;;;2.72;71.56;100240.24;1783564;80;20956;-40
2022/12/26 10:09:27;;;;;;;27.60;21.15;;;;;;;2.76;71.40;100239.92;1783319;79;21656;-39
2022/12/26 10:12:08;;;;;;;26.87;20.45;;;;;;;2.79;71.20;100243.39;1783424;80;21124;-39
2022/12/26 10:14:56;;;;;;;27.60;20.43;;;;;;;2.80;71.06;100244.98;1783348;80;21008;-39
2022/12/26 10:17:43;;;;;;;30.02;20.90;;;;;;;2.79;71.20;100237.23;1783400;80;20960;-39
2022/12/26 10:20:43;;;;;;;28.38;20.30;;;;;;;2.77;71.19;100238.84;1783406;80;21628;-39
2022/12/26 10:23:38;;;;;;;27.73;20.75;;;;;;;2.81;71.34;100233.17;1782462;80;20979;-39
2022/12/26 10:26:16;;;;;;;28.38;21.48;;;;;;;2.94;71.23;100227.13;1783608;80;21234;-39
2022/12/26 10:28:48;;;;;;;30.27;22.27;;;;;;;3.00;70.80;100221.17;1783420;80;21461;-39
2022/12/26 10:31:23;;;;;;;27.20;20.88;;;;;;;3.03;70.65;100212.02;1783690;79;21091;-39
2022/12/26 10:34:01;;;;;;;29.42;21.73;;;;;;;3.03;70.07;100207.19;1784000;79;20929;-39
2022/12/26 10:36:55;;;;;;;32.40;23.07;;;;;;;2.96;69.87;100203.52;1783350;80;21549;-39
2022/12/26 10:39:27;;;;;;;30.62;22.70;;;;;;;2.91;69.74;100203.59;1783612;80;21123;-39
2022/12/26 10:41:58;;;;;;;28.90;22.07;;;;;;;2.84;70.06;100199.69;1783392;80;20925;-39
2022/12/26 10:44:25;;;;;;;29.70;22.15;;;;;;;2.79;70.23;100195.19;1783730;80;21576;-40
2022/12/26 10:47:17;;;;;;;29.75;21.85;;;;;;;2.82;70.32;100191.12;1783261;80;21577;-39
2022/12/26 14:33:24;;;;;;;32.25;23.42;;;;;;;1.66;80.61;100017.56;1785515;80;22661;-39
2022/12/26 14:36:29;;;;;;;31.45;23.47;;;;;;;1.84;79.55;100017.35;1782305;80;20992;-39
2022/12/26 14:39:30;;;;;;;33.67;23.90;;;;;;;1.86;79.31;100003.70;1732361;82;21247;-39
2022/12/26 14:45:04;;;;;;;34.50;24.37;;;;;;;1.79;78.14;100013.43;1782454;80;20980;-39
2022/12/26 14:47:48;;;;;;;35.08;24.98;;;;;;;1.75;77.88;100012.38;1756049;80;21554;-39
2022/12/26 14:50:35;;;;;;;39.20;26.90;;;;;;;1.78;77.52;100013.70;1781980;80;21548;-39
2022/12/26 14:53:27;;;;;;;40.98;27.93;;;;;;;1.83;77.05;100016.32;1702573;84;21256;-39
2022/12/26 14:56:01;;;;;;;42.15;28.32;;;;;;;1.85;77.05;100012.27;1771817;80;21553;-39
2022/12/26 14:58:43;;;;;;;37.03;26.35;;;;;;;1.87;76.77;100015.46;1781988;80;21612;-39
2022/12/26 15:01:19;;;;;;;36.13;25.57;;;;;;;1.90;76.62;100014.08;1782400;80;20894;-39
2022/12/26 15:04:24;;;;;;;32.28;23.12;;;;;;;1.95;76.37;100009.47;1782177;80;21055;-39
2022/12/26 15:07:23;;;;;;;31.87;22.55;;;;;;;2.02;75.91;100010.47;1782151;80;21121;-39
2022/12/26 15:10:14;;;;;;;30.68;22.30;;;;;;;2.08;75.46;99991.38;1782092;80;21020;-39
2022/12/26 15:13:05;;;;;;;33.90;23.40;;;;;;;2.06;75.20;99975.38;1782109;80;20996;-39
2022/12/26 15:16:02;;;;;;;35.15;24.07;;;;;;;2.03;75.20;99954.57;1735616;80;21052;-40
2022/12/26 15:18:56;;;;;;;33.42;23.45;;;;;;;1.98;75.21;99946.08;1782115;80;21088;-39
2022/12/26 15:21:31;;;;;;;34.58;22.62;;;;;;;1.88;75.20;99925.36;1782030;80;21127;-39
2022/12/26 15:24:12;;;;;;;33.00;22.45;;;;;;;1.81;75.45;99905.66;1782017;80;20960;-39
2022/12/26 15:27:01;;;;;;;33.08;22.55;;;;;;;1.87;75.47;99892.48;1746380;80;21012;-39
2022/12/26 15:30:08;;;;;;;32.60;22.85;;;;;;;1.88;75.38;99895.95;1749711;80;21028;-40
2022/12/26 15:32:47;;;;;;;32.70;22.95;;;;;;;1.84;75.61;99901.06;1781942;80;21545;-39
2022/12/26 15:35:24;;;;;;;33.25;21.97;;;;;;;1.80;75.57;99905.94;1781972;80;23124;-39
2022/12/26 15:38:17;;;;;;;31.30;21.40;;;;;;;1.74;75.68;99917.26;1782134;80;21816;-39
2022/12/26 15:41:36;;;;;;;31.17;21.85;;;;;;;1.73;75.87;99944.53;1781724;80;20957;-39
2022/12/26 15:44:31;;;;;;;32.13;22.40;;;;;;;1.73;75.88;99953.08;1781693;80;21040;-39
2022/12/26 15:47:25;;;;;;;32.60;22.20;;;;;;;1.68;76.32;99965.17;1781733;80;21595;-39
2022/12/26 15:50:18;;;;;;;30.48;22.82;;;;;;;1.66;76.48;99946.73;1781395;80;21154;-39
2022/12/26 15:53:26;;;;;;;29.63;21.05;;;;;;;1.62;76.52;99944.92;1781734;80;20960;-39
2022/12/26 15:56:17;;;;;;;29.92;21.42;;;;;;;1.63;76.63;99960.69;1781798;80;21236;-39
2022/12/26 15:58:58;;;;;;;32.05;21.82;;;;;;;1.66;76.76;99941.94;1782025;80;21072;-39
2022/12/26 16:01:45;;;;;;;33.30;22.85;;;;;;;1.70;76.85;99925.03;1781745;80;21048;-39
2022/12/26 16:04:23;;;;;;;32.55;23.70;;;;;;;1.68;76.79;99925.08;1781937;80;21097;-39
2022/12/26 16:07:20;;;;;;;31.65;23.32;;;;;;;1.64;77.00;99926.20;1781902;80;21000;-39
2022/12/26 16:09:51;;;;;;;31.87;22.40;;;;;;;1.64;77.04;99921.39;1781931;80;20989;-40
2022/12/26 16:12:30;;;;;;;32.95;23.55;;;;;;;1.66;77.09;99940.06;1781885;80;21020;-40
2022/12/26 16:15:13;;;;;;;33.67;23.90;;;;;;;1.73;77.00;99954.42;1782030;80;21568;-40
2022/12/26 16:17:40;;;;;;;34.25;24.23;;;;;;;1.72;77.17;99970.20;1781824;80;21257;-40
2022/12/26 16:23:18;;;;;;;32.53;23.07;;;;;;;1.68;77.30;99949.14;1755512;80;21498;-40
2022/12/26 16:25:51;;;;;;;31.77;23.42;;;;;;;1.64;77.28;99953.47;1782347;80;21001;-40
2022/12/26 16:28:29;;;;;;;33.00;23.87;;;;;;;1.63;77.45;99958.02;1782051;80;21360;-40
2022/12/26 16:30:56;;;;;;;34.35;24.37;;;;;;;1.59;77.62;99970.89;1782046;80;21160;-40
2022/12/26 16:33:22;;;;;;;33.63;23.75;;;;;;;1.53;77.92;99993.41;1781886;80;21060;-40
2022/12/26 16:35:49;;;;;;;32.15;23.67;;;;;;;1.51;78.10;100010.24;1781777;80;21025;-40
2022/12/26 16:38:21;;;;;;;31.60;21.77;;;;;;;1.54;78.17;100008.36;1781610;80;21000;-40
2022/12/26 16:40:49;;;;;;;31.90;23.20;;;;;;;1.57;78.10;100002.44;1781591;80;21487;-40
2022/12/26 16:43:22;;;;;;;32.58;23.45;;;;;;;1.57;78.09;99991.75;1775416;80;21229;-40
2022/12/26 16:45:54;;;;;;;34.88;23.25;;;;;;;1.53;78.23;99994.73;1781432;80;21005;-40
2022/12/26 16:48:23;;;;;;;31.70;21.57;;;;;;;1.52;78.45;99992.60;1781636;80;20945;-40
2022/12/26 16:50:57;;;;;;;29.63;20.92;;;;;;;1.56;78.41;99967.44;1781600;80;21510;-40
2022/12/26 16:53:39;;;;;;;28.30;21.12;;;;;;;1.64;78.30;99960.95;1781530;80;21517;-40
2022/12/26 16:56:28;;;;;;;31.45;21.33;;;;;;;1.68;78.33;99950.47;1778461;80;23181;-40
2022/12/26 16:59:15;;;;;;;30.30;22.10;;;;;;;1.62;78.50;99934.23;1775538;80;21102;-40
2022/12/26 17:01:44;;;;;;;29.25;21.15;;;;;;;1.55;78.67;99940.48;1781387;80;20965;-40
2022/12/26 17:04:20;;;;;;;27.90;21.33;;;;;;;1.55;78.90;99939.15;1755563;80;21406;-40
2022/12/26 17:07:04;;;;;;;28.05;21.20;;;;;;;1.58;78.89;99934.02;1781873;80;21048;-40
2022/12/26 17:09:45;;;;;;;29.18;21.65;;;;;;;1.57;79.02;99927.62;1781513;80;20992;-39
2022/12/26 17:12:36;;;;;;;29.90;21.73;;;;;;;1.48;79.34;99913.30;1781674;80;21476;-39
2022/12/26 17:15:04;;;;;;;28.30;20.43;;;;;;;1.42;79.66;99905.09;1781679;80;20986;-39
2022/12/26 17:17:36;;;;;;;29.50;20.88;;;;;;;1.35;79.82;99906.78;1781896;80;20992;-39
2022/12/26 17:20:28;;;;;;;28.07;20.52;;;;;;;1.36;79.96;99902.21;1781620;80;21057;-40
2022/12/26 17:22:55;;;;;;;29.32;21.50;;;;;;;1.38;80.29;99888.05;1781713;80;22052;-40
2022/12/26 17:25:32;;;;;;;29.10;20.60;;;;;;;1.36;80.31;99878.97;1781437;80;21525;-40
2022/12/26 17:28:16;;;;;;;25.35;18.45;;;;;;;1.33;80.34;99882.22;1755744;80;21086;-40
2022/12/26 17:30:45;;;;;;;25.95;19.73;;;;;;;1.39;80.37;99884.30;1781849;80;21497;-40
2022/12/26 17:33:24;;;;;;;24.77;18.65;;;;;;;1.47;80.25;99886.33;1781875;80;21044;-41
2022/12/26 17:36:02;;;;;;;26.52;19.87;;;;;;;1.48;80.26;99875.36;1781649;80;21302;-40
2022/12/26 17:38:29;;;;;;;28.92;19.65;;;;;;;1.47;80.30;99874.30;1781770;80;20991;-39
2022/12/26 17:40:59;;;;;;;26.15;17.98;;;;;;;1.48;80.38;99861.20;1781661;80;21023;-40
2022/12/26 17:43:36;;;;;;;22.50;17.32;;;;;;;1.50;80.15;99863.06;1781975;80;21020;-39
2022/12/26 17:46:04;;;;;;;22.40;16.70;;;;;;;1.60;79.98;99849.54;1781797;80;21558;-40
2022/12/26 17:48:33;;;;;;;26.30;18.73;;;;;;;1.66;79.73;99843.84;1781729;80;21079;-40
2022/12/26 17:51:06;;;;;;;27.00;18.75;;;;;;;1.66;79.68;99833.16;1781571;80;20996;-40
2022/12/26 17:53:37;;;;;;;28.02;19.57;;;;;;;1.65;79.55;99817.40;1782014;80;21013;-40
2022/12/26 17:56:07;;;;;;;27.07;18.90;;;;;;;1.64;79.53;99815.83;1780580;80;20948;-40